Gillette, WY

11:07 PM MDT on September 15, 2014 (GMT -0600)
Gillette-Campbell County | Change Station
CLOSE
Current Station
Airport
Location: Gillette,
Elevation: 4364 ft
Nearby Weather Stations

Elev 4364 ft 44.34 °N, 105.54 °W | Updated 14 minutes ago

Clear
Clear
55 °F
Feels Like 55 °F
N
12
Wind Variable Wind from South

Today
High -- | Low -- °F
--% Chance of Precip.
Yesterday
High -- | Low -- °F
Precip. -- in
6:41 AM 7:13 PM
Waning Gibbous, 49% visible
Pressure 30.04 in
Visibility -9999.0 miles
Clouds Clear
Dew Point 44 °F
Humidity 67%
Rainfall 0.00 in
Snow Depth 2 in , 0 in , 0 in
UV 0 out of 12
Pollen 5.50 out of 12
Air Quality Not available.
Flu Activity Not available.
METAR KGCC 160453Z AUTO 17010KT CLR 13/07 A3011 RMK AO2 SLP171 T01280067 $

More Conditions Fewer Conditions

Pressure 30.04 in
Visibility -9999.0 miles
Clouds Clear
Dew Point 44 °F
Humidity 67%
Rainfall 0.00 in
Snow Depth 2 in , 0 in , 0 in
UV 0 out of 12
Pollen 5.50 out of 12
Air Quality Not available.
Flu Activity Not available.
METAR KGCC 160453Z AUTO 17010KT CLR 13/07 A3011 RMK AO2 SLP171 T01280067 $

More Conditions Fewer Conditions

10-Day Weather Forecast

Almanac

Astronomy

Sep. 15, 2014 Rise Set
Actual Time 6:41 AM MDT 7:13 PM MDT
Civil Twilight 6:12 AM MDT 7:42 PM MDT
Nautical Twilight 5:37 AM MDT 8:16 PM MDT
Astronomical Twilight 5:01 AM MDT 8:52 PM MDT
Moon 11:44 PM MDT (9/15) 1:58 PM MDT (9/15)
Length of Visible Light 13h 30m
Length of Day
12h 31m
Tomorrow will be 3m 4s shorter.
Waning Gibbous, 49% of the Moon is Illuminated
Sep 16
Waning Gibbous
Sep 24
New
Oct 1
First Quarter
Oct 8
Full
Oct 15
Last Quarter

Yesterday's Extremes

State Highs State Lows

Community

WunderPhotos

Upload Photos

1,753,702 photos uploaded!

Nearby

Snow Depth

Station Depth Elevation
New Fork Lake 2 in 8340 ft
Cinnabar Park 0 in 9690 ft
Thumb Divide 0 in 7980 ft
Phillips Bench 0 in 8200 ft
Cold Springs 0 in 9630 ft

Earthquake Activity

City Distance Mag. Time & Date
No recent earthquake activity has been reported nearby.
Minimum magnitude displayed is 2.5.

Coastal Water Temperatures

Place Temperature
No Stations Reporting

Nearby Weather Stations